sensor_id;sensor_type;location;lat;lon;timestamp;pressure;altitude;pressure_sealevel;temperature
74536;BMP180;63013;51.104;-115.370;2022-12-05T00:01:36;86854.80;;;22.30
74536;BMP180;63013;51.104;-115.370;2022-12-05T00:04:11;86856.20;;;22.22
74536;BMP180;63013;51.104;-115.370;2022-12-05T00:06:40;86853.60;;;22.20
74536;BMP180;63013;51.104;-115.370;2022-12-05T00:09:10;86853.80;;;22.20
74536;BMP180;63013;51.104;-115.370;2022-12-05T00:11:40;86854.00;;;22.20
74536;BMP180;63013;51.104;-115.370;2022-12-05T00:14:09;86846.00;;;22.16
74536;BMP180;63013;51.104;-115.370;2022-12-05T00:16:40;86844.60;;;22.10
74536;BMP180;63013;51.104;-115.370;2022-12-05T00:19:10;86845.60;;;22.10
74536;BMP180;63013;51.104;-115.370;2022-12-05T00:21:38;86851.40;;;22.10
74536;BMP180;63013;51.104;-115.370;2022-12-05T00:24:10;86851.20;;;22.10
74536;BMP180;63013;51.104;-115.370;2022-12-05T00:26:37;86849.40;;;22.10
74536;BMP180;63013;51.104;-115.370;2022-12-05T00:29:04;86849.00;;;22.00
74536;BMP180;63013;51.104;-115.370;2022-12-05T00:31:32;86850.00;;;22.00
74536;BMP180;63013;51.104;-115.370;2022-12-05T00:34:02;86851.00;;;22.00
74536;BMP180;63013;51.104;-115.370;2022-12-05T00:36:32;86848.40;;;22.00
74536;BMP180;63013;51.104;-115.370;2022-12-05T00:39:11;86846.60;;;21.92
74536;BMP180;63013;51.104;-115.370;2022-12-05T00:41:41;86845.20;;;21.90
74536;BMP180;63013;51.104;-115.370;2022-12-05T00:44:11;86849.00;;;21.90
74536;BMP180;63013;51.104;-115.370;2022-12-05T00:46:39;86849.00;;;21.90
74536;BMP180;63013;51.104;-115.370;2022-12-05T00:49:07;86846.60;;;21.90
74536;BMP180;63013;51.104;-115.370;2022-12-05T00:51:40;86849.20;;;21.90
74536;BMP180;63013;51.104;-115.370;2022-12-05T00:54:11;86848.40;;;21.90
74536;BMP180;63013;51.104;-115.370;2022-12-05T00:56:38;86845.40;;;21.82
74536;BMP180;63013;51.104;-115.370;2022-12-05T00:59:07;86844.00;;;21.80
74536;BMP180;63013;51.104;-115.370;2022-12-05T01:01:38;86847.20;;;21.80
74536;BMP180;63013;51.104;-115.370;2022-12-05T01:04:18;86848.60;;;21.80
74536;BMP180;63013;51.104;-115.370;2022-12-05T01:06:46;86847.00;;;21.80
74536;BMP180;63013;51.104;-115.370;2022-12-05T01:09:17;86851.60;;;21.80
74536;BMP180;63013;51.104;-115.370;2022-12-05T01:11:46;86860.60;;;21.80
74536;BMP180;63013;51.104;-115.370;2022-12-05T01:14:17;86856.60;;;21.78
74536;BMP180;63013;51.104;-115.370;2022-12-05T01:16:47;86850.80;;;21.70
74536;BMP180;63013;51.104;-115.370;2022-12-05T01:19:28;86854.60;;;21.70
74536;BMP180;63013;51.104;-115.370;2022-12-05T01:21:56;86850.00;;;21.70
74536;BMP180;63013;51.104;-115.370;2022-12-05T01:24:26;86848.40;;;21.70
74536;BMP180;63013;51.104;-115.370;2022-12-05T01:26:53;86849.80;;;21.70
74536;BMP180;63013;51.104;-115.370;2022-12-05T01:29:23;86850.40;;;21.70
74536;BMP180;63013;51.104;-115.370;2022-12-05T01:31:50;86848.20;;;21.70
74536;BMP180;63013;51.104;-115.370;2022-12-05T01:34:19;86849.80;;;21.68
74536;BMP180;63013;51.104;-115.370;2022-12-05T01:36:47;86849.00;;;21.68
74536;BMP180;63013;51.104;-115.370;2022-12-05T01:39:15;86847.00;;;21.60
74536;BMP180;63013;51.104;-115.370;2022-12-05T01:41:46;86848.20;;;21.60
74536;BMP180;63013;51.104;-115.370;2022-12-05T01:46:50;86855.80;;;21.60
74536;BMP180;63013;51.104;-115.370;2022-12-05T01:52:14;86854.00;;;21.60
74536;BMP180;63013;51.104;-115.370;2022-12-05T01:54:41;86855.20;;;21.54
74536;BMP180;63013;51.104;-115.370;2022-12-05T01:57:11;86856.60;;;21.50
74536;BMP180;63013;51.104;-115.370;2022-12-05T01:59:48;86852.80;;;21.50
74536;BMP180;63013;51.104;-115.370;2022-12-05T02:02:16;86857.60;;;21.50
74536;BMP180;63013;51.104;-115.370;2022-12-05T02:05:14;86861.20;;;21.50
74536;BMP180;63013;51.104;-115.370;2022-12-05T02:07:44;86861.40;;;21.44
74536;BMP180;63013;51.104;-115.370;2022-12-05T02:10:12;86858.80;;;21.40
74536;BMP180;63013;51.104;-115.370;2022-12-05T02:12:41;86862.40;;;21.40
74536;BMP180;63013;51.104;-115.370;2022-12-05T02:18:29;86865.40;;;21.40
74536;BMP180;63013;51.104;-115.370;2022-12-05T02:24:41;86867.20;;;21.30
74536;BMP180;63013;51.104;-115.370;2022-12-05T02:30:20;86865.40;;;21.30
74536;BMP180;63013;51.104;-115.370;2022-12-05T02:33:02;86873.00;;;21.30
74536;BMP180;63013;51.104;-115.370;2022-12-05T02:44:13;86886.60;;;21.20
74536;BMP180;63013;51.104;-115.370;2022-12-05T02:46:42;86890.00;;;21.20
74536;BMP180;63013;51.104;-115.370;2022-12-05T02:49:15;86887.40;;;21.20
74536;BMP180;63013;51.104;-115.370;2022-12-05T02:51:52;86894.20;;;21.10
74536;BMP180;63013;51.104;-115.370;2022-12-05T02:54:28;86892.60;;;21.10
74536;BMP180;63013;51.104;-115.370;2022-12-05T02:56:58;86897.40;;;21.10
74536;BMP180;63013;51.104;-115.370;2022-12-05T02:59:26;86902.40;;;21.10
74536;BMP180;63013;51.104;-115.370;2022-12-05T03:01:54;86901.20;;;21.10
74536;BMP180;63013;51.104;-115.370;2022-12-05T03:04:23;86900.20;;;21.14
74536;BMP180;63013;51.104;-115.370;2022-12-05T03:07:06;86903.20;;;21.20
74536;BMP180;63013;51.104;-115.370;2022-12-05T03:09:42;86908.40;;;21.20
74536;BMP180;63013;51.104;-115.370;2022-12-05T03:12:19;86911.40;;;21.20
74536;BMP180;63013;51.104;-115.370;2022-12-05T03:15:00;86909.40;;;21.20
74536;BMP180;63013;51.104;-115.370;2022-12-05T03:20:40;86920.20;;;21.14
74536;BMP180;63013;51.104;-115.370;2022-12-05T03:23:42;86916.60;;;21.10
74536;BMP180;63013;51.104;-115.370;2022-12-05T03:30:24;86917.60;;;21.10
74536;BMP180;63013;51.104;-115.370;2022-12-05T03:32:40;86913.40;;;21.10
74536;BMP180;63013;51.104;-115.370;2022-12-05T03:38:25;86914.80;;;21.00
74536;BMP180;63013;51.104;-115.370;2022-12-05T03:43:57;86905.20;;;21.00
74536;BMP180;63013;51.104;-115.370;2022-12-05T03:46:47;86903.00;;;21.00
74536;BMP180;63013;51.104;-115.370;2022-12-05T03:49:39;86901.40;;;21.00
74536;BMP180;63013;51.104;-115.370;2022-12-05T03:52:27;86902.00;;;20.94
74536;BMP180;63013;51.104;-115.370;2022-12-05T03:55:04;86899.00;;;20.90
74536;BMP180;63013;51.104;-115.370;2022-12-05T03:57:43;86895.40;;;20.90
74536;BMP180;63013;51.104;-115.370;2022-12-05T04:00:21;86897.60;;;20.90
74536;BMP180;63013;51.104;-115.370;2022-12-05T04:03:07;86896.40;;;20.90
74536;BMP180;63013;51.104;-115.370;2022-12-05T04:05:58;86895.60;;;20.90
74536;BMP180;63013;51.104;-115.370;2022-12-05T04:08:43;86898.00;;;20.80
74536;BMP180;63013;51.104;-115.370;2022-12-05T04:11:21;86897.60;;;20.80
74536;BMP180;63013;51.104;-115.370;2022-12-05T04:13:57;86897.60;;;20.80
74536;BMP180;63013;51.104;-115.370;2022-12-05T04:16:46;86893.80;;;20.80
74536;BMP180;63013;51.104;-115.370;2022-12-05T04:22:37;86892.40;;;20.80
74536;BMP180;63013;51.104;-115.370;2022-12-05T04:25:09;86885.20;;;20.80
74536;BMP180;63013;51.104;-115.370;2022-12-05T04:28:49;86882.60;;;20.70
74536;BMP180;63013;51.104;-115.370;2022-12-05T04:31:24;86882.40;;;20.70
74536;BMP180;63013;51.104;-115.370;2022-12-05T04:33:57;86883.60;;;20.70
74536;BMP180;63013;51.104;-115.370;2022-12-05T04:36:35;86886.40;;;20.70
74536;BMP180;63013;51.104;-115.370;2022-12-05T04:39:11;86883.80;;;20.70
74536;BMP180;63013;51.104;-115.370;2022-12-05T04:42:09;86883.00;;;20.64
74536;BMP180;63013;51.104;-115.370;2022-12-05T04:44:57;86884.80;;;20.60
74536;BMP180;63013;51.104;-115.370;2022-12-05T04:47:33;86887.00;;;20.60
74536;BMP180;63013;51.104;-115.370;2022-12-05T04:50:04;86883.40;;;20.60
74536;BMP180;63013;51.104;-115.370;2022-12-05T04:52:33;86878.80;;;20.60
74536;BMP180;63013;51.104;-115.370;2022-12-05T04:55:12;86884.20;;;20.60
74536;BMP180;63013;51.104;-115.370;2022-12-05T05:00:30;86880.40;;;20.50
74536;BMP180;63013;51.104;-115.370;2022-12-05T05:03:17;86886.80;;;20.52
74536;BMP180;63013;51.104;-115.370;2022-12-05T05:05:49;86888.60;;;20.50
74536;BMP180;63013;51.104;-115.370;2022-12-05T05:08:22;86885.80;;;20.50
74536;BMP180;63013;51.104;-115.370;2022-12-05T05:13:37;86883.80;;;20.50
74536;BMP180;63013;51.104;-115.370;2022-12-05T05:16:05;86886.80;;;20.50
74536;BMP180;63013;51.104;-115.370;2022-12-05T05:18:32;86884.80;;;20.50
74536;BMP180;63013;51.104;-115.370;2022-12-05T05:21:00;86883.40;;;20.50
74536;BMP180;63013;51.104;-115.370;2022-12-05T05:23:26;86884.40;;;20.42
74536;BMP180;63013;51.104;-115.370;2022-12-05T05:25:55;86886.40;;;20.42
74536;BMP180;63013;51.104;-115.370;2022-12-05T05:28:22;86885.80;;;20.40
74536;BMP180;63013;51.104;-115.370;2022-12-05T05:30:49;86884.60;;;20.40
74536;BMP180;63013;51.104;-115.370;2022-12-05T05:33:16;86881.00;;;20.40
74536;BMP180;63013;51.104;-115.370;2022-12-05T05:35:43;86882.40;;;20.40
74536;BMP180;63013;51.104;-115.370;2022-12-05T05:38:10;86884.80;;;20.40
74536;BMP180;63013;51.104;-115.370;2022-12-05T05:40:37;86885.20;;;20.34
74536;BMP180;63013;51.104;-115.370;2022-12-05T05:43:05;86881.40;;;20.32
74536;BMP180;63013;51.104;-115.370;2022-12-05T05:45:32;86874.80;;;20.30
74536;BMP180;63013;51.104;-115.370;2022-12-05T05:47:59;86880.40;;;20.30
74536;BMP180;63013;51.104;-115.370;2022-12-05T05:50:26;86882.80;;;20.30
74536;BMP180;63013;51.104;-115.370;2022-12-05T05:52:53;86880.20;;;20.30
74536;BMP180;63013;51.104;-115.370;2022-12-05T05:55:20;86875.40;;;20.30
74536;BMP180;63013;51.104;-115.370;2022-12-05T05:57:47;86871.60;;;20.28
74536;BMP180;63013;51.104;-115.370;2022-12-05T06:00:14;86872.80;;;20.24
74536;BMP180;63013;51.104;-115.370;2022-12-05T06:02:42;86872.60;;;20.20
74536;BMP180;63013;51.104;-115.370;2022-12-05T06:05:09;86870.00;;;20.20
74536;BMP180;63013;51.104;-115.370;2022-12-05T06:07:36;86866.40;;;20.20
74536;BMP180;63013;51.104;-115.370;2022-12-05T06:10:03;86858.20;;;20.20
74536;BMP180;63013;51.104;-115.370;2022-12-05T06:12:31;86851.60;;;20.20
74536;BMP180;63013;51.104;-115.370;2022-12-05T06:14:58;86845.60;;;20.20
74536;BMP180;63013;51.104;-115.370;2022-12-05T06:17:25;86841.20;;;20.20
74536;BMP180;63013;51.104;-115.370;2022-12-05T06:19:52;86836.00;;;20.16
74536;BMP180;63013;51.104;-115.370;2022-12-05T06:22:19;86831.80;;;20.10
74536;BMP180;63013;51.104;-115.370;2022-12-05T06:24:46;86826.00;;;20.10
74536;BMP180;63013;51.104;-115.370;2022-12-05T06:27:13;86817.00;;;20.10
74536;BMP180;63013;51.104;-115.370;2022-12-05T06:29:40;86817.00;;;20.10
74536;BMP180;63013;51.104;-115.370;2022-12-05T06:32:07;86817.80;;;20.10
74536;BMP180;63013;51.104;-115.370;2022-12-05T06:34:35;86824.20;;;20.10
74536;BMP180;63013;51.104;-115.370;2022-12-05T06:37:02;86827.80;;;20.08
74536;BMP180;63013;51.104;-115.370;2022-12-05T06:39:29;86824.80;;;20.02
74536;BMP180;63013;51.104;-115.370;2022-12-05T06:41:57;86827.60;;;20.00
74536;BMP180;63013;51.104;-115.370;2022-12-05T06:44:24;86829.40;;;20.00
74536;BMP180;63013;51.104;-115.370;2022-12-05T06:46:55;86827.40;;;20.00
74536;BMP180;63013;51.104;-115.370;2022-12-05T06:49:24;86830.00;;;20.00
74536;BMP180;63013;51.104;-115.370;2022-12-05T06:51:52;86833.20;;;19.98
74536;BMP180;63013;51.104;-115.370;2022-12-05T06:54:20;86832.80;;;19.92
74536;BMP180;63013;51.104;-115.370;2022-12-05T06:56:47;86835.60;;;19.90
74536;BMP180;63013;51.104;-115.370;2022-12-05T06:59:14;86836.00;;;19.90
74536;BMP180;63013;51.104;-115.370;2022-12-05T07:01:41;86833.20;;;19.90
74536;BMP180;63013;51.104;-115.370;2022-12-05T07:04:16;86837.00;;;19.90
74536;BMP180;63013;51.104;-115.370;2022-12-05T07:06:46;86832.20;;;19.90
74536;BMP180;63013;51.104;-115.370;2022-12-05T07:09:24;86825.60;;;19.90
74536;BMP180;63013;51.104;-115.370;2022-12-05T07:12:17;86826.80;;;19.90
74536;BMP180;63013;51.104;-115.370;2022-12-05T07:14:45;86830.00;;;19.88
74536;BMP180;63013;51.104;-115.370;2022-12-05T07:17:13;86830.40;;;19.80
74536;BMP180;63013;51.104;-115.370;2022-12-05T07:19:40;86823.20;;;19.80
74536;BMP180;63013;51.104;-115.370;2022-12-05T07:22:07;86819.00;;;19.80
74536;BMP180;63013;51.104;-115.370;2022-12-05T07:24:34;86809.80;;;19.80
74536;BMP180;63013;51.104;-115.370;2022-12-05T07:27:02;86803.20;;;19.80
74536;BMP180;63013;51.104;-115.370;2022-12-05T07:29:29;86801.80;;;19.78
74536;BMP180;63013;51.104;-115.370;2022-12-05T07:31:56;86804.20;;;19.70
74536;BMP180;63013;51.104;-115.370;2022-12-05T07:34:23;86807.60;;;19.70
74536;BMP180;63013;51.104;-115.370;2022-12-05T07:36:50;86814.80;;;19.70
74536;BMP180;63013;51.104;-115.370;2022-12-05T07:39:17;86809.20;;;19.70
74536;BMP180;63013;51.104;-115.370;2022-12-05T07:41:45;86808.60;;;19.70
74536;BMP180;63013;51.104;-115.370;2022-12-05T07:44:13;86802.20;;;19.70
74536;BMP180;63013;51.104;-115.370;2022-12-05T07:46:40;86795.20;;;19.62
74536;BMP180;63013;51.104;-115.370;2022-12-05T07:49:07;86795.40;;;19.60
74536;BMP180;63013;51.104;-115.370;2022-12-05T07:51:35;86794.20;;;19.60
74536;BMP180;63013;51.104;-115.370;2022-12-05T07:54:02;86790.60;;;19.60
74536;BMP180;63013;51.104;-115.370;2022-12-05T07:56:29;86786.80;;;19.60
74536;BMP180;63013;51.104;-115.370;2022-12-05T07:58:56;86787.40;;;19.60
74536;BMP180;63013;51.104;-115.370;2022-12-05T08:01:27;86788.20;;;19.58
74536;BMP180;63013;51.104;-115.370;2022-12-05T08:03:58;86783.80;;;19.52
74536;BMP180;63013;51.104;-115.370;2022-12-05T08:06:29;86782.80;;;19.50
74536;BMP180;63013;51.104;-115.370;2022-12-05T08:08:57;86780.80;;;19.50
74536;BMP180;63013;51.104;-115.370;2022-12-05T08:11:31;86777.60;;;19.50
74536;BMP180;63013;51.104;-115.370;2022-12-05T08:14:03;86774.40;;;19.50
74536;BMP180;63013;51.104;-115.370;2022-12-05T08:16:32;86764.40;;;19.50
74536;BMP180;63013;51.104;-115.370;2022-12-05T08:19:05;86763.20;;;19.48
74536;BMP180;63013;51.104;-115.370;2022-12-05T08:21:34;86761.40;;;19.44
74536;BMP180;63013;51.104;-115.370;2022-12-05T08:24:05;86761.00;;;19.40
74536;BMP180;63013;51.104;-115.370;2022-12-05T08:26:34;86756.40;;;19.40
74536;BMP180;63013;51.104;-115.370;2022-12-05T08:29:06;86753.80;;;19.40
74536;BMP180;63013;51.104;-115.370;2022-12-05T08:31:42;86754.60;;;19.40
74536;BMP180;63013;51.104;-115.370;2022-12-05T08:34:12;86751.40;;;19.40
74536;BMP180;63013;51.104;-115.370;2022-12-05T08:36:40;86749.40;;;19.40
74536;BMP180;63013;51.104;-115.370;2022-12-05T08:39:10;86751.80;;;19.32
74536;BMP180;63013;51.104;-115.370;2022-12-05T08:41:44;86746.20;;;19.30
74536;BMP180;63013;51.104;-115.370;2022-12-05T08:44:12;86741.40;;;19.30
74536;BMP180;63013;51.104;-115.370;2022-12-05T08:46:48;86733.60;;;19.30
74536;BMP180;63013;51.104;-115.370;2022-12-05T08:49:17;86732.80;;;19.30
74536;BMP180;63013;51.104;-115.370;2022-12-05T08:51:44;86739.20;;;19.30
74536;BMP180;63013;51.104;-115.370;2022-12-05T08:54:12;86736.40;;;19.30
74536;BMP180;63013;51.104;-115.370;2022-12-05T08:56:39;86734.60;;;19.26
74536;BMP180;63013;51.104;-115.370;2022-12-05T08:59:06;86736.00;;;19.20
74536;BMP180;63013;51.104;-115.370;2022-12-05T09:01:35;86732.00;;;19.20
74536;BMP180;63013;51.104;-115.370;2022-12-05T09:04:04;86728.20;;;19.20
74536;BMP180;63013;51.104;-115.370;2022-12-05T09:06:33;86727.80;;;19.20
74536;BMP180;63013;51.104;-115.370;2022-12-05T09:09:05;86719.80;;;19.20
74536;BMP180;63013;51.104;-115.370;2022-12-05T09:11:37;86716.40;;;19.20
74536;BMP180;63013;51.104;-115.370;2022-12-05T09:14:06;86715.20;;;19.20
74536;BMP180;63013;51.104;-115.370;2022-12-05T09:16:36;86721.60;;;19.14
74536;BMP180;63013;51.104;-115.370;2022-12-05T09:19:04;86714.60;;;19.10
74536;BMP180;63013;51.104;-115.370;2022-12-05T09:21:31;86718.00;;;19.10
74536;BMP180;63013;51.104;-115.370;2022-12-05T09:23:59;86719.80;;;19.10
74536;BMP180;63013;51.104;-115.370;2022-12-05T09:26:28;86718.20;;;19.10
74536;BMP180;63013;51.104;-115.370;2022-12-05T09:28:56;86716.00;;;19.10
74536;BMP180;63013;51.104;-115.370;2022-12-05T09:31:25;86714.60;;;19.10
74536;BMP180;63013;51.104;-115.370;2022-12-05T09:33:53;86715.80;;;19.08
74536;BMP180;63013;51.104;-115.370;2022-12-05T09:36:24;86706.00;;;19.00
74536;BMP180;63013;51.104;-115.370;2022-12-05T09:38:52;86705.40;;;19.00
74536;BMP180;63013;51.104;-115.370;2022-12-05T09:44:57;86704.00;;;19.00
74536;BMP180;63013;51.104;-115.370;2022-12-05T09:47:47;86703.00;;;18.98
74536;BMP180;63013;51.104;-115.370;2022-12-05T09:50:24;86699.60;;;18.90
74536;BMP180;63013;51.104;-115.370;2022-12-05T09:53:10;86703.00;;;18.90
74536;BMP180;63013;51.104;-115.370;2022-12-05T09:55:50;86695.80;;;18.90
74536;BMP180;63013;51.104;-115.370;2022-12-05T09:58:41;86697.60;;;18.90
74536;BMP180;63013;51.104;-115.370;2022-12-05T10:07:25;86698.80;;;18.80
74536;BMP180;63013;51.104;-115.370;2022-12-05T10:13:22;86689.40;;;18.80
74536;BMP180;63013;51.104;-115.370;2022-12-05T10:15:56;86682.20;;;18.80
74536;BMP180;63013;51.104;-115.370;2022-12-05T10:18:42;86675.60;;;18.78
74536;BMP180;63013;51.104;-115.370;2022-12-05T10:24:36;86672.80;;;18.70
74536;BMP180;63013;51.104;-115.370;2022-12-05T10:27:10;86665.80;;;18.70
74536;BMP180;63013;51.104;-115.370;2022-12-05T10:30:00;86661.20;;;18.70
74536;BMP180;63013;51.104;-115.370;2022-12-05T10:32:37;86656.40;;;18.70
74536;BMP180;63013;51.104;-115.370;2022-12-05T10:35:27;86647.80;;;18.70
74536;BMP180;63013;51.104;-115.370;2022-12-05T10:38:05;86639.80;;;18.70
74536;BMP180;63013;51.104;-115.370;2022-12-05T10:40:44;86636.80;;;18.70
74536;BMP180;63013;51.104;-115.370;2022-12-05T10:43:18;86637.20;;;18.66
74536;BMP180;63013;51.104;-115.370;2022-12-05T10:45:49;86625.40;;;18.62
74536;BMP180;63013;51.104;-115.370;2022-12-05T10:48:19;86620.40;;;18.60
74536;BMP180;63013;51.104;-115.370;2022-12-05T10:50:51;86616.20;;;18.60
74536;BMP180;63013;51.104;-115.370;2022-12-05T10:53:41;86615.00;;;18.60
74536;BMP180;63013;51.104;-115.370;2022-12-05T10:56:43;86613.20;;;18.60
74536;BMP180;63013;51.104;-115.370;2022-12-05T10:59:20;86602.80;;;18.56
74536;BMP180;63013;51.104;-115.370;2022-12-05T11:01:55;86600.60;;;18.50
74536;BMP180;63013;51.104;-115.370;2022-12-05T11:04:28;86600.00;;;18.50
74536;BMP180;63013;51.104;-115.370;2022-12-05T11:07:04;86595.60;;;18.50
74536;BMP180;63013;51.104;-115.370;2022-12-05T11:09:37;86590.20;;;18.50
74536;BMP180;63013;51.104;-115.370;2022-12-05T11:12:23;86587.60;;;18.50
74536;BMP180;63013;51.104;-115.370;2022-12-05T11:15:21;86578.40;;;18.50
74536;BMP180;63013;51.104;-115.370;2022-12-05T11:17:53;86576.20;;;18.50
74536;BMP180;63013;51.104;-115.370;2022-12-05T11:22:55;86559.20;;;18.40
74536;BMP180;63013;51.104;-115.370;2022-12-05T11:25:34;86557.80;;;18.40
74536;BMP180;63013;51.104;-115.370;2022-12-05T11:31:26;86547.40;;;18.40
74536;BMP180;63013;51.104;-115.370;2022-12-05T11:34:19;86550.40;;;18.40
74536;BMP180;63013;51.104;-115.370;2022-12-05T11:36:53;86550.60;;;18.40
74536;BMP180;63013;51.104;-115.370;2022-12-05T11:39:23;86549.40;;;18.40
74536;BMP180;63013;51.104;-115.370;2022-12-05T11:54:08;86534.60;;;18.26
74536;BMP180;63013;51.104;-115.370;2022-12-05T11:57:02;86536.00;;;18.22
74536;BMP180;63013;51.104;-115.370;2022-12-05T12:03:39;86530.40;;;18.20
74536;BMP180;63013;51.104;-115.370;2022-12-05T12:12:05;86525.20;;;18.18
74536;BMP180;63013;51.104;-115.370;2022-12-05T12:17:37;86513.40;;;18.10
74536;BMP180;63013;51.104;-115.370;2022-12-05T12:24:06;86498.60;;;18.10
74536;BMP180;63013;51.104;-115.370;2022-12-05T12:27:12;86492.60;;;18.10
74536;BMP180;63013;51.104;-115.370;2022-12-05T12:30:11;86493.00;;;18.08
74536;BMP180;63013;51.104;-115.370;2022-12-05T12:33:14;86483.00;;;18.02
74536;BMP180;63013;51.104;-115.370;2022-12-05T12:35:58;86479.40;;;18.00
74536;BMP180;63013;51.104;-115.370;2022-12-05T12:39:06;86483.20;;;18.00
74536;BMP180;63013;51.104;-115.370;2022-12-05T12:44:43;86466.00;;;18.00
74536;BMP180;63013;51.104;-115.370;2022-12-05T12:47:59;86460.60;;;18.00
74536;BMP180;63013;51.104;-115.370;2022-12-05T12:50:43;86455.20;;;17.92
74536;BMP180;63013;51.104;-115.370;2022-12-05T12:58:53;86440.40;;;17.90
74536;BMP180;63013;51.104;-115.370;2022-12-05T13:02:07;86433.00;;;17.90
74536;BMP180;63013;51.104;-115.370;2022-12-05T13:04:49;86420.40;;;17.90
74536;BMP180;63013;51.104;-115.370;2022-12-05T13:07:34;86413.80;;;17.88
74536;BMP180;63013;51.104;-115.370;2022-12-05T13:12:44;86396.60;;;17.80
74536;BMP180;63013;51.104;-115.370;2022-12-05T13:15:17;86391.60;;;17.80
74536;BMP180;63013;51.104;-115.370;2022-12-05T13:17:47;86389.00;;;17.80
74536;BMP180;63013;51.104;-115.370;2022-12-05T13:20:21;86387.40;;;17.80
74536;BMP180;63013;51.104;-115.370;2022-12-05T13:22:52;86384.20;;;17.80
74536;BMP180;63013;51.104;-115.370;2022-12-05T13:25:24;86391.80;;;17.80
74536;BMP180;63013;51.104;-115.370;2022-12-05T13:28:00;86389.00;;;17.80
74536;BMP180;63013;51.104;-115.370;2022-12-05T13:30:29;86382.60;;;17.80
74536;BMP180;63013;51.104;-115.370;2022-12-05T13:33:00;86381.60;;;17.80
74536;BMP180;63013;51.104;-115.370;2022-12-05T13:35:34;86375.20;;;17.80
74536;BMP180;63013;51.104;-115.370;2022-12-05T13:38:33;86381.20;;;17.80
74536;BMP180;63013;51.104;-115.370;2022-12-05T13:41:20;86380.80;;;17.80
74536;BMP180;63013;51.104;-115.370;2022-12-05T13:44:06;86369.60;;;17.88
74536;BMP180;63013;51.104;-115.370;2022-12-05T13:46:41;86371.40;;;17.90
74536;BMP180;63013;51.104;-115.370;2022-12-05T13:49:51;86365.60;;;17.90
74536;BMP180;63013;51.104;-115.370;2022-12-05T13:52:30;86361.40;;;17.96
74536;BMP180;63013;51.104;-115.370;2022-12-05T13:55:37;86353.20;;;18.00
74536;BMP180;63013;51.104;-115.370;2022-12-05T14:00:50;86348.60;;;18.10
74536;BMP180;63013;51.104;-115.370;2022-12-05T14:09:28;86344.00;;;18.20
74536;BMP180;63013;51.104;-115.370;2022-12-05T14:17:30;86335.40;;;18.30
74536;BMP180;63013;51.104;-115.370;2022-12-05T14:20:47;86333.20;;;18.38
74536;BMP180;63013;51.104;-115.370;2022-12-05T14:23:41;86324.00;;;18.40
74536;BMP180;63013;51.104;-115.370;2022-12-05T14:29:35;86321.80;;;18.50
74536;BMP180;63013;51.104;-115.370;2022-12-05T14:32:24;86316.60;;;18.56
74536;BMP180;63013;51.104;-115.370;2022-12-05T14:35:39;86304.60;;;18.60
74536;BMP180;63013;51.104;-115.370;2022-12-05T14:38:22;86299.20;;;18.66
74536;BMP180;63013;51.104;-115.370;2022-12-05T14:40:53;86295.00;;;18.70
74536;BMP180;63013;51.104;-115.370;2022-12-05T14:43:29;86289.80;;;18.70
74536;BMP180;63013;51.104;-115.370;2022-12-05T14:46:00;86280.80;;;18.80
74536;BMP180;63013;51.104;-115.370;2022-12-05T14:48:43;86274.60;;;18.80
74536;BMP180;63013;51.104;-115.370;2022-12-05T14:54:14;86259.80;;;18.90
74536;BMP180;63013;51.104;-115.370;2022-12-05T14:56:53;86248.80;;;19.00
74536;BMP180;63013;51.104;-115.370;2022-12-05T14:59:37;86240.40;;;19.10
74536;BMP180;63013;51.104;-115.370;2022-12-05T15:02:30;86233.20;;;19.10
74536;BMP180;63013;51.104;-115.370;2022-12-05T15:05:20;86234.40;;;19.20
74536;BMP180;63013;51.104;-115.370;2022-12-05T15:07:49;86234.00;;;19.30
74536;BMP180;63013;51.104;-115.370;2022-12-05T15:10:24;86235.60;;;19.40
74536;BMP180;63013;51.104;-115.370;2022-12-05T15:13:06;86238.20;;;19.48
74536;BMP180;63013;51.104;-115.370;2022-12-05T15:16:13;86236.40;;;19.50
74536;BMP180;63013;51.104;-115.370;2022-12-05T15:19:01;86244.40;;;19.60
74536;BMP180;63013;51.104;-115.370;2022-12-05T15:21:37;86244.00;;;19.70
74536;BMP180;63013;51.104;-115.370;2022-12-05T15:24:16;86235.40;;;19.74
74536;BMP180;63013;51.104;-115.370;2022-12-05T15:26:56;86237.80;;;19.80
74536;BMP180;63013;51.104;-115.370;2022-12-05T15:29:29;86226.60;;;19.90
74536;BMP180;63013;51.104;-115.370;2022-12-05T15:32:01;86230.20;;;19.92
74536;BMP180;63013;51.104;-115.370;2022-12-05T15:37:51;86238.60;;;20.00
74536;BMP180;63013;51.104;-115.370;2022-12-05T15:40:22;86239.80;;;20.10
74536;BMP180;63013;51.104;-115.370;2022-12-05T15:42:55;86235.20;;;20.16
74536;BMP180;63013;51.104;-115.370;2022-12-05T15:45:27;86231.40;;;20.20
74536;BMP180;63013;51.104;-115.370;2022-12-05T15:48:10;86228.40;;;20.22
74536;BMP180;63013;51.104;-115.370;2022-12-05T15:50:49;86222.20;;;20.30
74536;BMP180;63013;51.104;-115.370;2022-12-05T15:56:14;86221.80;;;20.48
74536;BMP180;63013;51.104;-115.370;2022-12-05T16:02:00;86214.40;;;20.60
74536;BMP180;63013;51.104;-115.370;2022-12-05T16:04:45;86212.40;;;20.70
74536;BMP180;63013;51.104;-115.370;2022-12-05T16:07:15;86210.00;;;20.80
74536;BMP180;63013;51.104;-115.370;2022-12-05T16:09:45;86206.00;;;20.86
74536;BMP180;63013;51.104;-115.370;2022-12-05T16:14:53;86194.00;;;21.00
74536;BMP180;63013;51.104;-115.370;2022-12-05T16:17:21;86186.00;;;21.02
74536;BMP180;63013;51.104;-115.370;2022-12-05T16:19:48;86188.80;;;21.10
74536;BMP180;63013;51.104;-115.370;2022-12-05T16:22:23;86184.20;;;21.10
74536;BMP180;63013;51.104;-115.370;2022-12-05T16:24:55;86182.40;;;21.20
74536;BMP180;63013;51.104;-115.370;2022-12-05T16:27:37;86178.40;;;21.20
74536;BMP180;63013;51.104;-115.370;2022-12-05T16:30:21;86177.40;;;21.20
74536;BMP180;63013;51.104;-115.370;2022-12-05T16:33:01;86176.80;;;21.20
74536;BMP180;63013;51.104;-115.370;2022-12-05T16:35:45;86165.20;;;21.20